This is the latest recevied weather packets stored in our database for station/object N8BAP. If no packets are shown the sender has not sent any weather packets the latest 10 day(s).
| Time | Temp. | Humidity | Pressure | Rain* | Wind** | Luminosity | Snow |
|---|---|---|---|---|---|---|---|
| 1777867637 | 11.67° C | 55% | 1018.3 hPa | 0 mm | - | 0 W/m² | - |
| 1777867334 | 11.67° C | 56% | 1018.3 hPa | 0 mm | - | 0 W/m² | - |
| 1777867030 | 11.67° C | 56% | 1018.3 hPa | 0 mm | - | 0 W/m² | - |
| 1777866728 | 11.67° C | 57% | 1018.4 hPa | 0 mm | - | 0 W/m² | - |
| 1777866425 | 11.67° C | 57% | 1018.4 hPa | 0 mm | - | 0 W/m² | - |
| 1777866122 | 11.67° C | 56% | 1018.4 hPa | 0 mm | - | 0 W/m² | - |
| 1777865820 | 11.67° C | 56% | 1018.5 hPa | 0 mm | - | 0 W/m² | - |
| 1777865517 | 11.67° C | 56% | 1018.6 hPa | 0 mm | - | 0 W/m² | - |
| 1777865213 | 11.67° C | 54% | 1018.6 hPa | 0 mm | - | 0 W/m² | - |
| 1777864911 | 11.67° C | 53% | 1018.8 hPa | 0 mm | - | 0 W/m² | - |
| 1777864608 | 12.22° C | 53% | 1018.9 hPa | 0 mm | - | 0 W/m² | - |
| 1777864304 | 12.22° C | 53% | 1018.8 hPa | 0 mm | - | 0 W/m² | - |
| 1777864001 | 12.22° C | 53% | 1018.6 hPa | 0 mm | - | 0 W/m² | - |
| 1777863698 | 12.22° C | 52% | 1018.8 hPa | 0 mm | - | 0 W/m² | - |
| 1777863394 | 12.22° C | 51% | 1019.1 hPa | 0 mm | - | 0 W/m² | - |
| 1777863091 | 12.22° C | 51% | 1019 hPa | 0 mm | - | 0 W/m² | - |
| 1777862789 | 12.22° C | 53% | 1018.9 hPa | 0 mm | - | 0 W/m² | - |
| 1777862485 | 11.67° C | 54% | 1018.9 hPa | 0 mm | - | 0 W/m² | - |
| 1777862182 | 11.67° C | 55% | 1019 hPa | 0 mm | - | 0 W/m² | - |
| 1777861878 | 11.11° C | 58% | 1018.9 hPa | 0 mm | - | 0 W/m² | - |
| 1777861574 | 10.56° C | 63% | 1018.9 hPa | 0 mm | - | 0 W/m² | - |
| 1777861270 | 10.56° C | 65% | 1018.9 hPa | 0 mm | - | 0 W/m² | - |
| 1777860969 | 10.56° C | 66% | 1018.9 hPa | 0 mm | - | 0 W/m² | - |
| 1777860665 | 10.56° C | 70% | 1018.6 hPa | 0 mm | - | 0 W/m² | - |
| 1777860362 | 10.56° C | 69% | 1018.9 hPa | 0 mm | - | 0 W/m² | - |
* Rain latest hour (hover to see other rain measurements)
** Current wind speed in m/s (hover to see current wind gust speed)